createdAt,value
2018-06-12T00:01:03.577Z,6.97
2018-06-12T00:03:32.875Z,6.73
2018-06-12T00:06:03.393Z,8.60
2018-06-12T00:08:34.670Z,7.50
2018-06-12T00:11:04.463Z,6.93
2018-06-12T00:13:34.719Z,7.13
2018-06-12T00:16:04.422Z,7.30
2018-06-12T00:18:36.117Z,6.80
2018-06-12T00:21:06.000Z,7.10
2018-06-12T00:23:36.350Z,6.50
2018-06-12T00:26:07.008Z,6.67
2018-06-12T00:28:36.524Z,6.00
2018-06-12T00:31:06.374Z,6.10
2018-06-12T00:33:35.995Z,6.40
2018-06-12T00:36:05.716Z,6.10
2018-06-12T00:38:35.372Z,5.60
2018-06-12T00:41:05.105Z,5.80
2018-06-12T00:43:35.647Z,6.83
2018-06-12T00:46:05.331Z,5.83
2018-06-12T00:48:35.109Z,5.90
2018-06-12T00:51:04.473Z,5.83
2018-06-12T00:53:34.220Z,5.70
2018-06-12T00:56:05.253Z,5.60
2018-06-12T00:58:35.227Z,5.70
2018-06-12T01:01:05.049Z,6.37
2018-06-12T01:03:35.475Z,5.97
2018-06-12T01:06:05.331Z,5.83
2018-06-12T01:08:34.968Z,6.37
2018-06-12T01:11:06.142Z,5.83
2018-06-12T01:13:35.814Z,6.43
2018-06-12T01:16:06.335Z,6.00
2018-06-12T01:18:36.195Z,6.33
2018-06-12T01:21:06.756Z,6.93
2018-06-12T01:23:36.405Z,6.60
2018-06-12T01:26:06.103Z,7.03
2018-06-12T01:28:37.271Z,7.80
2018-06-12T01:31:06.958Z,6.93
2018-06-12T01:33:36.608Z,7.97
2018-06-12T01:36:06.290Z,7.30
2018-06-12T01:38:37.260Z,7.53
2018-06-12T01:41:07.057Z,7.10
2018-06-12T01:43:37.607Z,7.63
2018-06-12T01:46:08.522Z,8.00
2018-06-12T01:48:39.520Z,8.17
2018-06-12T01:51:09.219Z,8.07
2018-06-12T01:53:39.662Z,8.33
2018-06-12T01:56:09.300Z,8.20
2018-06-12T01:58:39.494Z,8.00
2018-06-12T02:01:10.124Z,8.90
2018-06-12T02:03:40.976Z,9.40
2018-06-12T02:06:15.331Z,9.57
2018-06-12T02:09:07.092Z,9.70
2018-06-12T02:17:09.376Z,8.80
2018-06-12T02:19:39.629Z,8.53
2018-06-12T02:22:10.118Z,8.30
2018-06-12T02:24:40.385Z,8.47
2018-06-12T02:27:10.095Z,8.23
2018-06-12T02:29:39.953Z,8.20
2018-06-12T02:32:09.597Z,7.47
2018-06-12T02:34:40.189Z,7.63
2018-06-12T02:37:11.624Z,7.30
2018-06-12T02:39:42.286Z,7.30
2018-06-12T02:42:12.804Z,6.67
2018-06-12T02:44:42.669Z,6.47
2018-06-12T02:47:12.785Z,6.80
2018-06-12T02:49:42.529Z,6.87
2018-06-12T02:52:14.001Z,6.30
2018-06-12T02:54:43.705Z,6.07
2018-06-12T02:57:13.439Z,6.47
2018-06-12T02:59:44.237Z,6.13
2018-06-12T03:02:15.933Z,6.30
2018-06-12T03:04:45.646Z,6.80
2018-06-12T03:07:15.483Z,5.87
2018-06-12T03:09:45.193Z,6.40
2018-06-12T03:12:14.840Z,6.40
2018-06-12T03:14:46.259Z,6.30
2018-06-12T03:17:19.134Z,6.00
2018-06-12T03:19:49.767Z,5.50
2018-06-12T03:22:20.513Z,5.43
2018-06-12T03:24:54.324Z,5.77
2018-06-12T03:27:24.557Z,6.30
2018-06-12T03:29:54.324Z,5.70
2018-06-12T03:32:24.198Z,5.80
2018-06-12T03:34:54.741Z,5.40
2018-06-12T03:37:33.406Z,6.03
2018-06-12T03:40:06.577Z,6.27
2018-06-12T03:42:37.015Z,5.77
2018-06-12T03:45:07.632Z,5.40
2018-06-12T03:47:38.337Z,5.33
2018-06-12T03:50:07.979Z,6.37
2018-06-12T03:52:37.745Z,6.63
2018-06-12T03:55:07.769Z,6.23
2018-06-12T03:57:38.377Z,6.93
2018-06-12T04:00:09.195Z,6.80
2018-06-12T04:02:39.751Z,6.50
2018-06-12T04:05:09.335Z,6.67
2018-06-12T04:07:39.104Z,7.40
2018-06-12T04:10:08.727Z,6.93
2018-06-12T04:12:38.458Z,7.53
2018-06-12T04:15:08.285Z,7.57
2018-06-12T04:17:38.108Z,8.20
2018-06-12T04:20:08.938Z,7.80
2018-06-12T04:22:38.787Z,8.67
2018-06-12T04:25:08.554Z,8.63
2018-06-12T04:27:38.259Z,8.60
2018-06-12T04:30:07.926Z,7.93
2018-06-12T04:32:37.629Z,8.23
2018-06-12T04:35:07.536Z,8.23
2018-06-12T04:37:37.168Z,8.30
2018-06-12T04:40:06.876Z,8.53
2018-06-12T04:42:37.503Z,8.43
2018-06-12T04:45:07.243Z,8.73
2018-06-12T04:47:36.904Z,9.27
2018-06-12T04:50:06.703Z,8.73
2018-06-12T04:52:36.977Z,9.37
2018-06-12T04:55:06.668Z,10.07
2018-06-12T04:57:36.272Z,9.90
2018-06-12T05:00:06.029Z,10.13
2018-06-12T05:02:35.672Z,9.63
2018-06-12T05:05:05.418Z,9.23
2018-06-12T05:07:35.268Z,7.70
2018-06-12T05:10:04.897Z,9.33
2018-06-12T05:12:34.612Z,9.20
2018-06-12T05:15:04.218Z,9.13
2018-06-12T05:17:34.124Z,8.70
2018-06-12T05:20:03.836Z,9.27
2018-06-12T05:22:33.460Z,8.30
2018-06-12T05:25:03.498Z,8.63
2018-06-12T05:27:33.361Z,10.50
2018-06-12T05:30:02.987Z,9.77
2018-06-12T05:32:32.753Z,9.00
2018-06-12T05:35:02.583Z,9.37
2018-06-12T05:37:32.469Z,8.80
2018-06-12T05:40:02.294Z,9.60
2018-06-12T05:42:32.062Z,9.83
2018-06-12T05:45:01.655Z,9.73
2018-06-12T05:47:32.110Z,10.03
2018-06-12T05:50:01.907Z,9.23
2018-06-12T05:52:31.925Z,9.23
2018-06-12T05:55:01.801Z,8.90
2018-06-12T05:57:31.527Z,9.47
2018-06-12T06:00:01.739Z,8.70
2018-06-12T06:02:31.509Z,8.97
2018-06-12T06:05:02.136Z,8.73
2018-06-12T06:07:31.877Z,8.63
2018-06-12T06:10:01.221Z,8.27
2018-06-12T06:12:30.857Z,8.57
2018-06-12T06:15:00.751Z,8.43
2018-06-12T06:17:30.786Z,8.43
2018-06-12T06:20:01.242Z,8.13
2018-06-12T06:22:31.022Z,7.07
2018-06-12T06:25:01.413Z,7.27
2018-06-12T06:27:32.918Z,8.30
2018-06-12T06:30:03.476Z,7.00
2018-06-12T06:32:33.141Z,8.53
2018-06-12T06:35:02.956Z,8.00
2018-06-12T06:37:33.386Z,7.37
2018-06-12T06:40:03.260Z,7.17
2018-06-12T06:42:33.047Z,7.00
2018-06-12T06:45:02.978Z,6.80
2018-06-12T06:47:32.811Z,6.20
2018-06-12T06:50:03.845Z,6.53
2018-06-12T06:52:35.558Z,5.47
2018-06-12T06:55:07.294Z,4.47
2018-06-12T06:57:36.982Z,3.77
2018-06-12T07:00:07.044Z,3.23
2018-06-12T07:02:36.765Z,3.63
2018-06-12T07:05:06.500Z,3.53
2018-06-12T07:07:36.644Z,3.07
2018-06-12T07:10:08.225Z,3.27
2018-06-12T07:12:38.818Z,2.70
2018-06-12T07:15:09.525Z,2.60
2018-06-12T07:17:39.874Z,2.87
2018-06-12T07:20:09.695Z,2.43
2018-06-12T07:22:40.550Z,2.40
2018-06-12T07:25:12.153Z,2.40
2018-06-12T07:27:41.968Z,2.67
2018-06-12T07:30:12.650Z,3.10
2018-06-12T07:32:42.344Z,3.00
2018-06-12T07:35:12.105Z,3.33
2018-06-12T07:37:41.903Z,3.03
2018-06-12T07:40:11.625Z,3.10
2018-06-12T07:42:41.550Z,3.23
2018-06-12T07:45:12.289Z,2.90
2018-06-12T07:47:43.672Z,2.93
2018-06-12T07:50:13.638Z,2.80
2018-06-12T07:52:44.245Z,3.00
2018-06-12T07:55:15.056Z,2.87
2018-06-12T07:57:44.862Z,2.83
2018-06-12T08:00:14.629Z,3.00
2018-06-12T08:02:45.122Z,3.07
2018-06-12T08:05:17.348Z,2.77
2018-06-12T08:07:46.922Z,2.40
2018-06-12T08:10:16.697Z,3.10
2018-06-12T08:12:46.519Z,2.80
2018-06-12T08:15:16.184Z,2.50
2018-06-12T08:17:46.107Z,2.87
2018-06-12T08:20:18.230Z,2.60
2018-06-12T08:22:48.415Z,2.70
2018-06-12T08:25:18.252Z,2.97
2018-06-12T08:27:48.724Z,3.30
2018-06-12T08:30:18.709Z,2.70
2018-06-12T08:32:48.920Z,2.83
2018-06-12T08:35:18.805Z,2.97
2018-06-12T08:37:48.877Z,2.70
2018-06-12T08:40:19.915Z,2.90
2018-06-12T08:42:50.283Z,3.07
2018-06-12T08:45:21.586Z,2.80
2018-06-12T08:47:52.460Z,2.70
2018-06-12T08:50:22.163Z,2.87
2018-06-12T08:52:52.628Z,3.10
2018-06-12T08:55:22.356Z,3.37
2018-06-12T08:57:52.637Z,2.97
2018-06-12T09:00:26.077Z,2.83
2018-06-12T09:02:56.180Z,3.30
2018-06-12T09:05:26.423Z,3.40
2018-06-12T09:07:57.424Z,3.20
2018-06-12T09:10:28.487Z,3.30
2018-06-12T09:12:58.757Z,3.57
2018-06-12T09:15:28.533Z,3.00
2018-06-12T09:17:58.530Z,3.13
2018-06-12T09:20:28.308Z,3.37
2018-06-12T09:22:58.145Z,3.77
2018-06-12T09:25:28.853Z,3.10
2018-06-12T09:27:59.626Z,3.00
2018-06-12T09:30:29.391Z,3.33
2018-06-12T09:32:59.050Z,3.00
2018-06-12T09:35:29.296Z,3.17
2018-06-12T09:37:59.136Z,3.33
2018-06-12T09:40:29.107Z,3.20
2018-06-12T09:42:59.371Z,3.23
2018-06-12T09:45:29.147Z,3.13
2018-06-12T09:47:58.937Z,3.40
2018-06-12T09:50:28.707Z,3.10
2018-06-12T09:52:59.253Z,3.10
2018-06-12T09:55:29.098Z,3.27
2018-06-12T09:57:59.007Z,3.73
2018-06-12T10:00:34.588Z,3.43
2018-06-12T10:03:04.661Z,3.43
2018-06-12T10:05:35.623Z,3.60
2018-06-12T10:08:06.949Z,3.53
2018-06-12T10:10:36.653Z,3.20
2018-06-12T10:13:07.139Z,3.40
2018-06-12T10:15:38.484Z,3.60
2018-06-12T10:18:08.188Z,3.43
2018-06-12T10:20:37.970Z,2.80
2018-06-12T10:23:08.330Z,3.00
2018-06-12T10:25:39.978Z,2.98
2018-06-12T10:28:10.135Z,2.90
2018-06-12T10:30:40.012Z,3.62
2018-06-12T10:33:10.568Z,3.57
2018-06-12T10:35:40.357Z,3.50
2018-06-12T10:38:10.076Z,3.60
2018-06-12T10:40:40.490Z,3.10
2018-06-12T10:43:10.398Z,3.30
2018-06-12T10:45:40.202Z,3.50
2018-06-12T10:48:10.580Z,3.23
2018-06-12T10:50:40.279Z,3.10
2018-06-12T10:53:10.294Z,2.97
2018-06-12T10:55:41.284Z,2.77
2018-06-12T10:58:11.108Z,3.43
2018-06-12T11:00:40.821Z,3.07
2018-06-12T11:03:13.867Z,3.23
2018-06-12T11:05:43.712Z,3.20
2018-06-12T11:08:14.299Z,3.13
2018-06-12T11:10:44.174Z,4.10
2018-06-12T11:13:14.237Z,4.10
2018-06-12T11:15:45.554Z,3.67
2018-06-12T11:18:15.743Z,3.50
2018-06-12T11:20:45.490Z,3.73
2018-06-12T11:23:15.337Z,3.70
2018-06-12T11:25:45.120Z,3.57
2018-06-12T11:28:16.656Z,4.73
2018-06-12T11:30:46.584Z,4.00
2018-06-12T11:33:21.020Z,4.13
2018-06-12T11:35:51.097Z,4.13
2018-06-12T11:38:21.242Z,4.10
2018-06-12T11:40:51.113Z,4.47
2018-06-12T11:43:20.985Z,4.03
2018-06-12T11:45:50.799Z,4.50
2018-06-12T11:48:20.625Z,3.83
2018-06-12T11:50:50.312Z,4.47
2018-06-12T11:53:21.188Z,4.07
2018-06-12T11:55:51.242Z,3.97
2018-06-12T11:58:20.944Z,4.53
2018-06-12T12:00:52.259Z,3.83
2018-06-12T12:03:22.034Z,3.40
2018-06-12T12:05:51.893Z,3.57
2018-06-12T12:08:21.678Z,3.70
2018-06-12T12:10:51.853Z,3.40
2018-06-12T12:13:23.332Z,3.73
2018-06-12T12:15:53.055Z,3.17
2018-06-12T12:18:22.807Z,3.33
2018-06-12T12:20:52.878Z,3.13
2018-06-12T12:23:23.077Z,3.13
2018-06-12T12:25:52.852Z,3.47
2018-06-12T12:28:22.706Z,2.97
2018-06-12T12:30:52.766Z,3.10
2018-06-12T12:33:23.109Z,3.33
2018-06-12T12:35:52.769Z,3.27
2018-06-12T12:38:22.635Z,2.90
2018-06-12T12:40:52.444Z,3.20
2018-06-12T12:43:22.906Z,2.90
2018-06-12T12:45:53.211Z,3.40
2018-06-12T12:48:23.004Z,3.03
2018-06-12T12:50:52.726Z,3.17
2018-06-12T12:53:23.009Z,3.10
2018-06-12T12:55:52.786Z,2.87
2018-06-12T12:58:22.577Z,2.70
2018-06-12T13:00:52.294Z,2.57
2018-06-12T13:03:22.093Z,2.73
2018-06-12T13:05:52.425Z,2.90
2018-06-12T13:08:22.207Z,2.93
2018-06-12T13:10:51.908Z,3.07
2018-06-12T13:13:22.457Z,3.63
2018-06-12T13:15:54.059Z,3.03
2018-06-12T13:18:26.309Z,2.73
2018-06-12T13:20:56.958Z,2.60
2018-06-12T13:23:29.073Z,2.90
2018-06-12T13:26:03.595Z,2.60
2018-06-12T13:28:36.227Z,2.85
2018-06-12T13:31:08.203Z,2.98
2018-06-12T13:33:39.794Z,3.00
2018-06-12T13:36:13.407Z,3.00
2018-06-12T13:38:46.779Z,3.30
2018-06-12T13:41:18.625Z,3.50
2018-06-12T13:43:55.430Z,3.47
2018-06-12T13:46:25.477Z,3.17
2018-06-12T13:48:55.367Z,3.47
2018-06-12T13:51:25.478Z,3.50
2018-06-12T13:53:56.076Z,3.73
2018-06-12T13:56:25.789Z,3.10
2018-06-12T13:58:55.964Z,3.60
2018-06-12T14:01:25.655Z,3.40
2018-06-12T14:03:57.107Z,3.00
2018-06-12T14:06:31.216Z,2.80
2018-06-12T14:09:05.956Z,2.70
2018-06-12T14:11:36.384Z,3.00
2018-06-12T14:14:07.484Z,3.10
2018-06-12T14:16:37.281Z,3.00
2018-06-12T14:19:08.491Z,3.10
2018-06-12T14:21:38.772Z,2.80
2018-06-12T14:24:08.436Z,3.07
2018-06-12T14:26:38.077Z,2.87
2018-06-12T14:29:08.487Z,3.10
2018-06-12T14:31:38.204Z,2.80
2018-06-12T14:34:07.615Z,2.80
2018-06-12T14:36:37.263Z,2.80
2018-06-12T14:39:10.704Z,2.50
2018-06-12T14:41:41.590Z,3.03
2018-06-12T14:44:12.239Z,2.90
2018-06-12T14:46:42.035Z,2.70
2018-06-12T14:49:12.806Z,3.00
2018-06-12T14:51:42.941Z,2.97
2018-06-12T14:54:13.017Z,3.07
2018-06-12T14:56:42.818Z,2.70
2018-06-12T14:59:12.677Z,2.80
2018-06-12T15:01:43.486Z,3.00
2018-06-12T15:04:13.791Z,2.90
2018-06-12T15:06:43.497Z,2.67
2018-06-12T15:09:14.037Z,2.60
2018-06-12T15:11:43.782Z,2.80
2018-06-12T15:14:13.525Z,2.90
2018-06-12T15:16:43.323Z,2.77
2018-06-12T15:19:14.066Z,2.80
2018-06-12T15:21:44.699Z,2.90
2018-06-12T15:24:14.608Z,2.90
2018-06-12T15:26:44.729Z,2.93
2018-06-12T15:29:14.456Z,3.00
2018-06-12T15:31:44.246Z,2.83
2018-06-12T15:34:14.597Z,3.43
2018-06-12T15:36:44.192Z,3.03
2018-06-12T15:39:15.648Z,2.60
2018-06-12T15:41:45.502Z,2.60
2018-06-12T15:44:16.360Z,2.67
2018-06-12T15:46:46.172Z,2.80
2018-06-12T15:49:17.703Z,2.80
2018-06-12T15:51:47.544Z,2.97
2018-06-12T15:54:17.906Z,3.20
2018-06-12T15:56:49.170Z,3.10
2018-06-12T15:59:19.875Z,2.93
2018-06-12T16:01:50.877Z,2.70
2018-06-12T16:04:20.675Z,3.17
2018-06-12T16:06:50.943Z,3.00
2018-06-12T16:09:21.535Z,3.07
2018-06-12T16:11:51.847Z,3.27
2018-06-12T16:14:22.372Z,3.00
2018-06-12T16:16:53.918Z,2.70
2018-06-12T16:19:25.615Z,2.97
2018-06-12T16:21:55.964Z,3.00
2018-06-12T16:24:26.763Z,3.20
2018-06-12T16:26:59.120Z,2.83
2018-06-12T16:29:28.978Z,2.77
2018-06-12T16:31:59.755Z,2.97
2018-06-12T16:34:31.104Z,2.60
2018-06-12T16:37:02.877Z,3.30
2018-06-12T16:39:33.600Z,2.90
2018-06-12T16:42:04.667Z,3.40
2018-06-12T16:44:36.883Z,3.50
2018-06-12T16:47:12.576Z,3.30
2018-06-12T16:49:44.474Z,3.03
2018-06-12T16:52:15.462Z,3.63
2018-06-12T16:54:46.099Z,3.73
2018-06-12T16:57:17.561Z,3.90
2018-06-12T16:59:47.978Z,3.43
2018-06-12T17:02:19.195Z,3.60
2018-06-12T17:04:49.022Z,3.70
2018-06-12T17:07:22.121Z,3.40
2018-06-12T17:09:52.435Z,3.60
2018-06-12T17:12:22.741Z,3.70
2018-06-12T17:14:52.463Z,3.37
2018-06-12T17:17:23.116Z,3.70
2018-06-12T17:19:54.091Z,3.33
2018-06-12T17:22:24.959Z,4.03
2018-06-12T17:24:55.852Z,3.80
2018-06-12T17:27:26.104Z,3.30
2018-06-12T17:29:56.094Z,3.33
2018-06-12T17:32:25.832Z,3.43
2018-06-12T17:34:55.648Z,3.33
2018-06-12T17:37:25.372Z,3.33
2018-06-12T17:39:55.308Z,3.47
2018-06-12T17:42:26.580Z,3.20
2018-06-12T17:44:58.072Z,3.63
2018-06-12T17:47:27.916Z,3.40
2018-06-12T17:49:59.245Z,3.40
2018-06-12T17:52:29.967Z,3.47
2018-06-12T17:55:00.356Z,3.80
2018-06-12T17:57:31.461Z,3.50
2018-06-12T18:00:01.717Z,3.70
2018-06-12T18:02:33.898Z,3.83
2018-06-12T18:05:04.279Z,3.77
2018-06-12T18:07:34.443Z,3.60
2018-06-12T18:10:09.426Z,3.60
2018-06-12T18:12:41.893Z,4.60
2018-06-12T18:15:13.002Z,4.20
2018-06-12T18:17:43.386Z,3.30
2018-06-12T18:20:13.228Z,3.27
2018-06-12T18:22:44.716Z,3.37
2018-06-12T18:25:15.609Z,3.30
2018-06-12T18:27:45.649Z,3.33
2018-06-12T18:30:15.959Z,3.60
2018-06-12T18:32:46.814Z,3.00
2018-06-12T18:35:17.995Z,3.77
2018-06-12T18:37:50.313Z,3.90
2018-06-12T18:40:20.607Z,3.40
2018-06-12T18:42:50.571Z,4.10
2018-06-12T18:45:21.610Z,3.50
2018-06-12T18:47:51.283Z,3.60
2018-06-12T18:50:21.951Z,3.57
2018-06-12T18:52:56.795Z,3.40
2018-06-12T18:55:27.992Z,3.53
2018-06-12T18:57:58.815Z,3.53
2018-06-12T19:00:28.877Z,3.40
2018-06-12T19:03:00.475Z,3.27
2018-06-12T19:05:30.498Z,3.53
2018-06-12T19:08:01.770Z,3.00
2018-06-12T19:10:33.113Z,3.37
2018-06-12T19:13:03.698Z,3.37
2018-06-12T19:15:35.178Z,4.00
2018-06-12T19:18:06.090Z,3.67
2018-06-12T19:20:37.544Z,3.70
2018-06-12T19:23:07.913Z,3.77
2018-06-12T19:25:37.913Z,4.00
2018-06-12T19:28:07.897Z,3.60
2018-06-12T19:30:37.978Z,3.40
2018-06-12T19:33:07.792Z,3.43
2018-06-12T19:35:37.450Z,3.20
2018-06-12T19:38:08.817Z,3.60
2018-06-12T19:40:38.610Z,3.30
2018-06-12T19:43:08.841Z,3.83
2018-06-12T19:45:39.518Z,3.50
2018-06-12T19:48:10.360Z,3.23
2018-06-12T19:50:40.352Z,3.33
2018-06-12T19:53:11.010Z,3.40
2018-06-12T19:55:41.268Z,3.40
2018-06-12T19:58:11.148Z,2.87
2018-06-12T20:00:41.687Z,3.23
2018-06-12T20:03:11.943Z,2.77
2018-06-12T20:05:44.012Z,2.90
2018-06-12T20:08:14.531Z,3.17
2018-06-12T20:10:45.510Z,3.13
2018-06-12T20:13:15.373Z,2.90
2018-06-12T20:15:45.078Z,2.90
2018-06-12T20:18:14.974Z,3.30
2018-06-12T20:20:46.327Z,2.80
2018-06-12T20:23:16.271Z,2.90
2018-06-12T20:25:46.251Z,2.63
2018-06-12T20:28:16.663Z,3.17
2018-06-12T20:30:46.465Z,2.50
2018-06-12T20:33:16.239Z,3.10
2018-06-12T20:35:46.089Z,2.80
2018-06-12T20:38:16.137Z,3.10
2018-06-12T20:40:46.407Z,2.80
2018-06-12T20:43:16.402Z,2.83
2018-06-12T20:45:46.628Z,3.20
2018-06-12T20:48:18.385Z,3.10
2018-06-12T20:50:48.183Z,2.63
2018-06-12T20:53:18.925Z,2.80
2018-06-12T20:55:48.735Z,2.80
2018-06-12T20:58:18.655Z,2.53
2018-06-12T21:00:48.792Z,2.63
2018-06-12T21:03:18.590Z,2.57
2018-06-12T21:05:48.307Z,3.00
2018-06-12T21:08:18.110Z,2.83
2018-06-12T21:10:48.233Z,3.10
2018-06-12T21:13:18.418Z,2.70
2018-06-12T21:15:49.165Z,2.47
2018-06-12T21:18:18.956Z,2.93
2018-06-12T21:20:48.772Z,2.93
2018-06-12T21:23:18.518Z,4.27
2018-06-12T21:25:48.309Z,3.33
2018-06-12T21:28:18.381Z,3.33
2018-06-12T21:30:48.815Z,3.27
2018-06-12T21:33:19.520Z,3.20
2018-06-12T21:35:50.072Z,3.33
2018-06-12T21:38:19.779Z,3.03
2018-06-12T21:40:49.507Z,3.50
2018-06-12T21:43:19.587Z,3.03
2018-06-12T21:45:49.909Z,2.90
2018-06-12T21:48:20.456Z,3.10
2018-06-12T21:50:50.184Z,3.23
2018-06-12T21:53:20.707Z,3.00
2018-06-12T21:55:50.546Z,2.70
2018-06-12T21:58:20.603Z,2.77
2018-06-12T22:00:50.514Z,3.00
2018-06-12T22:03:20.345Z,3.13
2018-06-12T22:05:53.421Z,2.73
2018-06-12T22:08:24.947Z,3.03
2018-06-12T22:12:24.095Z,3.30
2018-06-12T22:14:53.778Z,3.53
2018-06-12T22:17:24.403Z,3.10
2018-06-12T22:19:54.256Z,2.70
2018-06-12T22:22:24.936Z,3.40
2018-06-12T22:24:54.656Z,2.90
2018-06-12T22:27:24.263Z,3.00
2018-06-12T22:29:54.922Z,2.80
2018-06-12T22:32:24.601Z,3.50
2018-06-12T22:34:55.472Z,3.20
2018-06-12T22:37:25.164Z,3.70
2018-06-12T22:39:56.264Z,3.10
2018-06-12T22:42:25.850Z,3.40
2018-06-12T22:44:55.607Z,2.90
2018-06-12T22:47:25.309Z,3.10
2018-06-12T22:49:54.935Z,3.20
2018-06-12T22:52:24.541Z,3.27
2018-06-12T22:54:54.204Z,3.13
2018-06-12T22:57:23.859Z,2.90
2018-06-12T22:59:53.739Z,2.83
2018-06-12T23:02:23.385Z,2.63
2018-06-12T23:04:53.415Z,2.50
2018-06-12T23:07:24.021Z,2.57
2018-06-12T23:09:53.820Z,2.33
2018-06-12T23:12:25.674Z,2.20
2018-06-12T23:14:56.776Z,2.00
2018-06-12T23:17:26.621Z,2.27
2018-06-12T23:20:13.184Z,2.57
2018-06-12T23:22:43.494Z,2.30
2018-06-12T23:25:13.395Z,2.63
2018-06-12T23:27:42.782Z,2.57
2018-06-12T23:30:13.324Z,2.70
2018-06-12T23:32:43.010Z,2.93
2018-06-12T23:35:12.902Z,2.80
2018-06-12T23:37:42.754Z,2.80
2018-06-12T23:40:12.454Z,3.10
2018-06-12T23:42:42.835Z,2.67
2018-06-12T23:45:12.848Z,2.80
2018-06-12T23:47:43.052Z,2.90
2018-06-12T23:50:13.403Z,2.73
2018-06-12T23:52:43.860Z,2.83
2018-06-12T23:55:13.747Z,3.00
2018-06-12T23:57:43.732Z,2.90
